createdAt,value
2018-01-27T00:00:15.782Z,37.03
2018-01-27T00:02:43.292Z,36.60
2018-01-27T00:05:10.837Z,35.53
2018-01-27T00:07:38.381Z,37.37
2018-01-27T00:10:05.910Z,38.30
2018-01-27T00:12:33.438Z,36.90
2018-01-27T00:15:00.995Z,36.20
2018-01-27T00:17:28.518Z,35.90
2018-01-27T00:19:56.040Z,36.40
2018-01-27T00:22:23.575Z,34.90
2018-01-27T00:24:51.129Z,36.07
2018-01-27T00:27:18.631Z,35.33
2018-01-27T00:29:46.139Z,35.47
2018-01-27T00:32:13.634Z,33.83
2018-01-27T00:34:41.165Z,35.17
2018-01-27T00:37:08.649Z,34.03
2018-01-27T00:39:36.162Z,34.27
2018-01-27T00:42:03.712Z,36.90
2018-01-27T00:44:31.276Z,37.17
2018-01-27T00:46:58.800Z,37.47
2018-01-27T00:49:26.319Z,32.83
2018-01-27T00:51:53.878Z,34.13
2018-01-27T00:54:21.389Z,36.10
2018-01-27T00:56:48.934Z,35.73
2018-01-27T00:59:16.429Z,35.53
2018-01-27T01:01:43.946Z,36.17
2018-01-27T01:04:11.466Z,35.33
2018-01-27T01:06:38.944Z,35.17
2018-01-27T01:09:06.470Z,36.37
2018-01-27T01:11:33.989Z,32.83
2018-01-27T01:14:01.505Z,34.73
2018-01-27T01:16:29.058Z,34.53
2018-01-27T01:18:56.606Z,34.87
2018-01-27T01:21:24.106Z,34.63
2018-01-27T01:23:51.631Z,35.00
2018-01-27T01:26:19.138Z,35.77
2018-01-27T01:28:46.662Z,36.97
2018-01-27T01:31:14.198Z,36.80
2018-01-27T01:33:41.801Z,36.67
2018-01-27T01:36:09.322Z,36.77
2018-01-27T01:38:36.841Z,36.57
2018-01-27T01:41:04.359Z,35.80
2018-01-27T01:46:36.325Z,37.20
2018-01-27T01:49:15.502Z,32.60
2018-01-27T01:51:43.025Z,33.27
2018-01-27T01:54:10.584Z,35.07
2018-01-27T01:56:38.079Z,33.70
2018-01-27T01:59:05.597Z,33.87
2018-01-27T02:01:33.090Z,33.53
2018-01-27T02:04:00.719Z,34.43
2018-01-27T02:06:28.276Z,33.50
2018-01-27T02:08:55.953Z,33.27
2018-01-27T02:11:23.500Z,33.80
2018-01-27T02:13:50.995Z,33.67
2018-01-27T02:16:18.509Z,32.10
2018-01-27T02:18:46.092Z,31.90
2018-01-27T02:21:13.611Z,31.43
2018-01-27T02:23:42.013Z,35.07
2018-01-27T02:26:09.516Z,32.23
2018-01-27T02:28:37.048Z,33.67
2018-01-27T02:31:04.591Z,33.30
2018-01-27T02:33:32.094Z,32.93
2018-01-27T02:35:59.638Z,33.37
2018-01-27T02:38:27.180Z,31.30
2018-01-27T02:40:54.749Z,32.00
2018-01-27T02:43:22.292Z,34.20
2018-01-27T02:45:49.797Z,33.53
2018-01-27T02:48:17.300Z,32.10
2018-01-27T02:50:44.828Z,32.73
2018-01-27T02:53:12.317Z,33.07
2018-01-27T02:55:39.794Z,34.90
2018-01-27T02:58:07.351Z,31.93
2018-01-27T03:00:34.914Z,34.73
2018-01-27T03:03:02.475Z,31.80
2018-01-27T03:05:29.999Z,32.03
2018-01-27T03:07:57.565Z,31.90
2018-01-27T03:10:25.080Z,32.47
2018-01-27T03:12:53.036Z,31.00
2018-01-27T03:15:20.527Z,33.03
2018-01-27T03:17:48.054Z,32.40
2018-01-27T03:20:15.613Z,31.17
2018-01-27T03:22:43.117Z,31.90
2018-01-27T03:25:10.671Z,32.10
2018-01-27T03:27:38.204Z,32.10
2018-01-27T03:30:05.745Z,32.87
2018-01-27T03:32:33.281Z,32.43
2018-01-27T03:35:00.813Z,31.00
2018-01-27T03:37:28.328Z,31.17
2018-01-27T03:39:55.856Z,32.00
2018-01-27T03:42:23.362Z,32.70
2018-01-27T03:44:50.869Z,29.37
2018-01-27T03:47:18.443Z,30.87
2018-01-27T03:49:45.944Z,30.67
2018-01-27T03:52:13.466Z,31.13
2018-01-27T03:54:41.063Z,29.93
2018-01-27T03:57:08.603Z,29.53
2018-01-27T03:59:36.138Z,32.67
2018-01-27T04:02:03.656Z,28.93
2018-01-27T04:04:31.189Z,29.43
2018-01-27T04:06:58.720Z,31.57
2018-01-27T04:09:26.224Z,30.90
2018-01-27T04:11:53.761Z,29.57
2018-01-27T04:14:21.297Z,30.10
2018-01-27T04:16:48.821Z,30.90
2018-01-27T04:19:16.332Z,29.63
2018-01-27T04:21:43.839Z,29.97
2018-01-27T04:24:11.359Z,29.73
2018-01-27T04:26:38.855Z,30.10
2018-01-27T04:29:06.370Z,30.60
2018-01-27T04:31:33.872Z,31.03
2018-01-27T04:34:01.373Z,29.70
2018-01-27T04:36:28.865Z,30.03
2018-01-27T04:38:56.385Z,31.50
2018-01-27T04:41:23.913Z,28.27
2018-01-27T04:43:51.437Z,31.10
2018-01-27T04:46:19.322Z,30.07
2018-01-27T04:48:46.937Z,30.63
2018-01-27T04:51:14.450Z,28.47
2018-01-27T04:53:42.018Z,29.97
2018-01-27T04:56:09.553Z,29.97
2018-01-27T04:58:37.073Z,30.73
2018-01-27T05:01:04.775Z,32.13
2018-01-27T05:03:32.269Z,31.03
2018-01-27T05:05:59.770Z,31.87
2018-01-27T05:08:27.424Z,29.67
2018-01-27T05:10:55.003Z,32.47
2018-01-27T05:13:22.508Z,32.23
2018-01-27T05:15:50.004Z,31.87
2018-01-27T05:18:17.497Z,32.13
2018-01-27T05:20:45.167Z,31.17
2018-01-27T05:23:12.722Z,31.10
2018-01-27T05:25:40.229Z,32.63
2018-01-27T05:28:07.767Z,31.73
2018-01-27T05:30:35.328Z,33.17
2018-01-27T05:33:02.924Z,34.50
2018-01-27T05:35:30.523Z,32.67
2018-01-27T05:37:58.041Z,31.13
2018-01-27T05:40:25.572Z,32.53
2018-01-27T05:42:53.062Z,32.57
2018-01-27T05:45:20.550Z,30.57
2018-01-27T05:47:48.126Z,31.97
2018-01-27T05:50:15.653Z,31.20
2018-01-27T05:52:43.167Z,32.37
2018-01-27T05:55:10.703Z,32.43
2018-01-27T05:57:38.276Z,32.53
2018-01-27T06:00:05.841Z,31.70
2018-01-27T06:02:33.397Z,32.37
2018-01-27T06:05:00.936Z,34.27
2018-01-27T06:07:28.477Z,31.73
2018-01-27T06:09:56.113Z,32.50
2018-01-27T06:12:23.632Z,33.27
2018-01-27T06:14:51.173Z,32.70
2018-01-27T06:17:18.727Z,33.90
2018-01-27T06:19:46.247Z,31.13
2018-01-27T06:22:13.785Z,34.20
2018-01-27T06:24:41.299Z,32.60
2018-01-27T06:27:08.800Z,33.50
2018-01-27T06:29:36.326Z,33.93
2018-01-27T06:32:03.838Z,34.03
2018-01-27T06:34:31.358Z,31.63
2018-01-27T06:36:58.874Z,34.30
2018-01-27T06:39:26.384Z,32.57
2018-01-27T06:41:54.002Z,31.10
2018-01-27T06:44:21.547Z,32.70
2018-01-27T06:46:49.079Z,32.90
2018-01-27T06:49:16.621Z,32.50
2018-01-27T06:51:44.251Z,34.77
2018-01-27T06:54:11.829Z,33.80
2018-01-27T06:56:39.433Z,34.03
2018-01-27T06:59:08.089Z,34.10
2018-01-27T07:01:36.838Z,32.93
2018-01-27T07:04:04.329Z,34.93
2018-01-27T07:06:31.856Z,32.73
2018-01-27T07:08:59.377Z,34.40
2018-01-27T07:11:26.896Z,33.97
2018-01-27T07:13:54.428Z,34.63
2018-01-27T07:16:22.036Z,33.20
2018-01-27T07:18:49.576Z,34.87
2018-01-27T07:21:17.087Z,32.33
2018-01-27T07:23:44.649Z,31.87
2018-01-27T07:26:12.162Z,31.50
2018-01-27T07:28:39.712Z,33.43
2018-01-27T07:31:07.218Z,32.17
2018-01-27T07:33:34.699Z,33.30
2018-01-27T07:36:02.212Z,30.70
2018-01-27T07:38:29.709Z,28.87
2018-01-27T07:40:57.191Z,31.40
2018-01-27T07:43:24.728Z,29.80
2018-01-27T07:45:52.264Z,30.80
2018-01-27T07:48:20.518Z,30.33
2018-01-27T07:50:50.147Z,32.33
2018-01-27T07:53:17.675Z,32.50
2018-01-27T07:55:45.191Z,29.57
2018-01-27T07:58:12.700Z,32.57
2018-01-27T08:00:40.206Z,31.70
2018-01-27T08:03:07.758Z,32.97
2018-01-27T08:05:35.477Z,29.40
2018-01-27T08:08:02.993Z,31.17
2018-01-27T08:10:30.525Z,28.70
2018-01-27T08:12:58.043Z,29.23
2018-01-27T08:15:25.794Z,29.50
2018-01-27T08:17:56.567Z,29.00
2018-01-27T08:20:24.566Z,30.03
2018-01-27T08:22:52.083Z,27.57
2018-01-27T08:25:20.440Z,29.07
2018-01-27T08:27:47.978Z,28.83
2018-01-27T08:30:15.475Z,27.90
2018-01-27T08:32:42.986Z,29.37
2018-01-27T08:35:10.482Z,28.57
2018-01-27T08:37:38.001Z,28.17
2018-01-27T08:40:05.548Z,27.87
2018-01-27T08:42:33.035Z,28.47
2018-01-27T08:45:00.528Z,30.40
2018-01-27T08:47:28.026Z,27.97
2018-01-27T08:49:55.548Z,28.97
2018-01-27T08:52:23.067Z,29.03
2018-01-27T08:54:50.556Z,29.83
2018-01-27T08:57:18.081Z,30.30
2018-01-27T08:59:45.599Z,31.30
2018-01-27T09:02:13.160Z,28.73
2018-01-27T09:04:40.656Z,27.30
2018-01-27T09:07:08.169Z,26.87
2018-01-27T09:09:35.751Z,28.53
2018-01-27T09:12:03.252Z,27.73
2018-01-27T09:14:30.784Z,27.67
2018-01-27T09:16:58.300Z,25.87
2018-01-27T09:19:25.825Z,24.97
2018-01-27T09:21:53.353Z,24.97
2018-01-27T09:24:20.844Z,25.90
2018-01-27T09:26:48.366Z,25.00
2018-01-27T09:29:15.885Z,24.83
2018-01-27T09:31:43.412Z,24.20
2018-01-27T09:34:10.924Z,24.27
2018-01-27T09:36:38.432Z,26.30
2018-01-27T09:39:05.922Z,23.83
2018-01-27T09:41:33.404Z,24.10
2018-01-27T09:44:00.897Z,23.90
2018-01-27T09:46:28.408Z,24.00
2018-01-27T09:48:55.915Z,24.20
2018-01-27T09:51:23.733Z,24.00
2018-01-27T09:53:51.222Z,24.37
2018-01-27T09:56:18.720Z,26.13
2018-01-27T09:58:46.195Z,24.83
2018-01-27T10:01:13.674Z,24.87
2018-01-27T10:03:41.198Z,25.00
2018-01-27T10:06:08.715Z,25.17
2018-01-27T10:08:36.236Z,25.03
2018-01-27T10:11:03.709Z,25.07
2018-01-27T10:13:31.254Z,24.47
2018-01-27T10:15:58.745Z,26.53
2018-01-27T10:18:26.495Z,25.30
2018-01-27T10:20:54.021Z,27.63
2018-01-27T10:23:21.533Z,27.40
2018-01-27T10:25:49.417Z,25.57
2018-01-27T10:28:17.054Z,26.73
2018-01-27T10:30:44.551Z,25.33
2018-01-27T10:33:12.065Z,25.97
2018-01-27T10:35:39.622Z,25.77
2018-01-27T10:38:07.135Z,24.93
2018-01-27T10:40:34.659Z,26.00
2018-01-27T10:43:02.158Z,26.47
2018-01-27T10:45:29.644Z,26.57
2018-01-27T10:47:57.155Z,25.43
2018-01-27T10:50:24.657Z,27.30
2018-01-27T10:52:52.204Z,26.73
2018-01-27T10:55:19.736Z,27.60
2018-01-27T10:57:47.255Z,26.33
2018-01-27T11:00:14.749Z,25.03
2018-01-27T11:02:42.279Z,27.43
2018-01-27T11:05:09.786Z,27.63
2018-01-27T11:07:37.285Z,25.87
2018-01-27T11:10:04.818Z,27.93
2018-01-27T11:12:32.306Z,27.50
2018-01-27T11:15:00.041Z,27.47
2018-01-27T11:17:27.616Z,27.47
2018-01-27T11:19:55.143Z,28.77
2018-01-27T11:22:22.630Z,29.83
2018-01-27T11:24:50.124Z,28.43
2018-01-27T11:27:17.641Z,28.93
2018-01-27T11:29:45.165Z,28.90
2018-01-27T11:32:12.669Z,27.90
2018-01-27T11:34:40.184Z,28.63
2018-01-27T11:37:07.693Z,28.53
2018-01-27T11:39:35.214Z,28.07
2018-01-27T11:42:02.725Z,27.73
2018-01-27T11:44:30.352Z,26.67
2018-01-27T11:46:57.838Z,26.00
2018-01-27T11:49:25.349Z,27.50
2018-01-27T11:51:52.841Z,26.63
2018-01-27T11:54:22.272Z,25.60
2018-01-27T11:56:51.641Z,24.33
2018-01-27T11:59:19.285Z,22.40
2018-01-27T12:01:46.768Z,22.73
2018-01-27T12:04:17.838Z,21.93
2018-01-27T12:06:45.356Z,23.03
2018-01-27T12:09:12.869Z,21.87
2018-01-27T12:11:40.395Z,22.77
2018-01-27T12:14:07.881Z,22.20
2018-01-27T12:16:35.586Z,23.30
2018-01-27T12:19:03.428Z,22.17
2018-01-27T12:21:30.921Z,24.20
2018-01-27T12:23:58.560Z,25.37
2018-01-27T12:26:26.090Z,22.50
2018-01-27T12:28:53.687Z,23.30
2018-01-27T12:31:21.212Z,24.00
2018-01-27T12:33:48.808Z,25.17
2018-01-27T12:36:16.326Z,25.33
2018-01-27T12:38:45.074Z,23.93
2018-01-27T12:41:12.627Z,26.23
2018-01-27T12:43:40.183Z,26.53
2018-01-27T12:46:07.758Z,26.33
2018-01-27T12:48:35.312Z,27.77
2018-01-27T12:51:02.929Z,27.10
2018-01-27T12:53:30.421Z,27.73
2018-01-27T12:55:57.921Z,29.40
2018-01-27T12:58:25.411Z,28.73
2018-01-27T13:00:52.942Z,28.27
2018-01-27T13:03:20.469Z,29.60
2018-01-27T13:05:47.979Z,30.97
2018-01-27T13:08:15.469Z,28.73
2018-01-27T13:10:43.673Z,30.67
2018-01-27T13:13:11.170Z,29.90
2018-01-27T13:15:38.750Z,28.83
2018-01-27T13:18:06.252Z,30.43
2018-01-27T13:20:33.730Z,28.50
2018-01-27T13:23:01.235Z,29.60
2018-01-27T13:25:28.767Z,31.57
2018-01-27T13:27:56.345Z,30.10
2018-01-27T13:30:23.837Z,30.80
2018-01-27T13:32:51.366Z,30.73
2018-01-27T13:35:18.885Z,31.13
2018-01-27T13:37:46.414Z,30.30
2018-01-27T13:40:13.958Z,29.57
2018-01-27T13:42:41.480Z,31.13
2018-01-27T13:45:09.015Z,29.37
2018-01-27T13:47:36.629Z,28.87
2018-01-27T13:50:04.183Z,29.73
2018-01-27T13:52:31.806Z,28.93
2018-01-27T13:54:59.346Z,30.13
2018-01-27T13:57:26.848Z,28.07
2018-01-27T13:59:54.364Z,27.30
2018-01-27T14:02:21.902Z,25.73
2018-01-27T14:04:49.402Z,26.27
2018-01-27T14:07:16.944Z,26.47
2018-01-27T14:09:44.435Z,26.47
2018-01-27T14:12:11.962Z,27.57
2018-01-27T14:14:39.494Z,25.70
2018-01-27T14:17:07.153Z,26.03
2018-01-27T14:19:34.664Z,27.97
2018-01-27T14:22:02.172Z,26.33
2018-01-27T14:24:29.663Z,26.10
2018-01-27T14:26:57.249Z,25.97
2018-01-27T14:29:24.746Z,25.13
2018-01-27T14:31:52.304Z,24.40
2018-01-27T14:34:19.813Z,23.70
2018-01-27T14:36:47.351Z,25.73
2018-01-27T14:39:16.317Z,24.63
2018-01-27T14:41:43.798Z,24.10
2018-01-27T14:44:11.286Z,22.93
2018-01-27T14:46:38.816Z,24.90
2018-01-27T14:49:06.345Z,24.53
2018-01-27T14:51:33.846Z,26.07
2018-01-27T14:54:01.367Z,25.57
2018-01-27T14:56:28.962Z,26.47
2018-01-27T14:58:56.478Z,24.73
2018-01-27T15:01:24.040Z,25.53
2018-01-27T15:03:52.247Z,25.93
2018-01-27T15:06:19.770Z,27.33
2018-01-27T15:08:47.301Z,25.10
2018-01-27T15:11:14.877Z,24.37
2018-01-27T15:13:42.386Z,25.43
2018-01-27T15:16:09.922Z,25.27
2018-01-27T15:18:37.407Z,25.53
2018-01-27T15:21:04.929Z,26.17
2018-01-27T15:23:32.448Z,25.63
2018-01-27T15:25:59.967Z,26.17
2018-01-27T15:28:27.446Z,24.53
2018-01-27T15:30:54.921Z,27.67
2018-01-27T15:33:22.426Z,27.27
2018-01-27T15:35:49.926Z,27.47
2018-01-27T15:38:17.463Z,25.10
2018-01-27T15:40:45.893Z,25.93
2018-01-27T15:43:13.400Z,26.33
2018-01-27T15:45:40.949Z,28.23
2018-01-27T15:48:08.516Z,25.13
2018-01-27T15:50:36.028Z,25.10
2018-01-27T15:53:03.537Z,27.30
2018-01-27T15:55:31.040Z,26.10
2018-01-27T15:57:58.566Z,26.80
2018-01-27T16:00:26.100Z,25.97
2018-01-27T16:02:53.591Z,27.27
2018-01-27T16:05:21.098Z,26.57
2018-01-27T16:07:48.588Z,26.80
2018-01-27T16:10:16.089Z,26.57
2018-01-27T16:12:43.631Z,26.10
2018-01-27T16:15:11.157Z,25.57
2018-01-27T16:17:38.689Z,25.50
2018-01-27T16:20:06.173Z,24.87
2018-01-27T16:22:34.554Z,26.40
2018-01-27T16:25:02.043Z,26.17
2018-01-27T16:27:29.748Z,26.17
2018-01-27T16:29:57.282Z,27.13
2018-01-27T16:32:24.791Z,26.63
2018-01-27T16:34:52.306Z,26.20
2018-01-27T16:37:19.857Z,26.20
2018-01-27T16:39:47.376Z,27.13
2018-01-27T16:42:14.892Z,27.87
2018-01-27T16:44:42.390Z,29.57
2018-01-27T16:47:09.882Z,28.30
2018-01-27T16:49:37.382Z,28.50
2018-01-27T16:52:04.902Z,29.17
2018-01-27T16:54:32.417Z,28.33
2018-01-27T16:56:59.990Z,29.33
2018-01-27T16:59:27.480Z,29.30
2018-01-27T17:01:56.715Z,29.33
2018-01-27T17:04:24.215Z,27.80
2018-01-27T17:06:51.720Z,28.90
2018-01-27T17:09:19.253Z,26.57
2018-01-27T17:11:46.799Z,27.83
2018-01-27T17:14:14.289Z,27.47
2018-01-27T17:16:41.839Z,27.30
2018-01-27T17:19:09.419Z,26.90
2018-01-27T17:21:36.997Z,28.33
2018-01-27T17:24:04.551Z,27.47
2018-01-27T17:26:32.054Z,26.67
2018-01-27T17:28:59.550Z,27.20
2018-01-27T17:31:27.097Z,27.27
2018-01-27T17:33:56.905Z,25.63
2018-01-27T17:36:24.442Z,25.57
2018-01-27T17:38:52.001Z,26.83
2018-01-27T17:41:19.508Z,24.90
2018-01-27T17:43:47.003Z,26.50
2018-01-27T17:46:14.528Z,24.97
2018-01-27T17:48:42.042Z,25.53
2018-01-27T17:51:09.564Z,24.80
2018-01-27T17:53:37.055Z,25.37
2018-01-27T17:56:04.588Z,23.73
2018-01-27T17:58:32.085Z,25.33
2018-01-27T18:00:59.629Z,24.57
2018-01-27T18:03:27.192Z,24.47
2018-01-27T18:05:54.818Z,25.53
2018-01-27T18:08:22.406Z,24.60
2018-01-27T18:10:50.394Z,24.37
2018-01-27T18:13:17.894Z,23.57
2018-01-27T18:15:45.412Z,23.27
2018-01-27T18:18:12.917Z,22.77
2018-01-27T18:20:40.430Z,23.27
2018-01-27T18:23:07.950Z,22.60
2018-01-27T18:25:35.674Z,22.83
2018-01-27T18:28:03.194Z,21.17
2018-01-27T18:30:30.830Z,22.10
2018-01-27T18:32:58.384Z,21.13
2018-01-27T18:35:25.972Z,20.93
2018-01-27T18:37:53.473Z,21.57
2018-01-27T18:40:20.962Z,19.37
2018-01-27T18:42:48.869Z,20.60
2018-01-27T18:45:16.690Z,19.73
2018-01-27T18:47:44.507Z,19.00
2018-01-27T18:50:14.347Z,18.23
2018-01-27T18:52:42.516Z,18.57
2018-01-27T18:55:10.409Z,18.40
2018-01-27T18:57:38.132Z,17.77
2018-01-27T19:00:06.126Z,16.90
2018-01-27T19:02:34.945Z,16.87
2018-01-27T19:05:04.051Z,17.50
2018-01-27T19:07:32.945Z,17.17
2018-01-27T19:10:01.873Z,17.73
2018-01-27T19:12:30.409Z,18.00
2018-01-27T19:14:58.382Z,17.00
2018-01-27T19:17:27.018Z,15.70
2018-01-27T19:19:55.478Z,16.43
2018-01-27T19:22:23.305Z,15.50
2018-01-27T19:24:51.069Z,15.67
2018-01-27T19:27:18.894Z,15.30
2018-01-27T19:29:47.046Z,14.37
2018-01-27T19:32:15.669Z,16.40
2018-01-27T19:34:45.913Z,14.83
2018-01-27T19:37:16.256Z,15.13
2018-01-27T19:39:44.484Z,15.73
2018-01-27T19:42:12.271Z,15.37
2018-01-27T19:44:39.970Z,14.50
2018-01-27T19:47:07.752Z,14.80
2018-01-27T19:49:35.957Z,14.73
2018-01-27T19:52:03.803Z,13.80
2018-01-27T19:54:31.341Z,15.20
2018-01-27T19:56:58.976Z,14.93
2018-01-27T19:59:26.527Z,14.53
2018-01-27T20:01:54.029Z,14.27
2018-01-27T20:04:21.517Z,14.77
2018-01-27T20:06:49.060Z,13.57
2018-01-27T20:09:16.568Z,12.77
2018-01-27T20:11:44.087Z,13.23
2018-01-27T20:14:11.639Z,12.90
2018-01-27T20:16:40.209Z,13.53
2018-01-27T20:19:08.384Z,12.67
2018-01-27T20:21:35.874Z,13.07
2018-01-27T20:24:03.855Z,12.50
2018-01-27T20:26:31.524Z,12.93
2018-01-27T20:28:59.114Z,12.53
2018-01-27T20:31:26.609Z,12.93
2018-01-27T20:33:54.564Z,12.87
2018-01-27T20:36:22.126Z,12.53
2018-01-27T20:38:49.631Z,12.37
2018-01-27T20:41:17.105Z,14.17
2018-01-27T20:43:45.412Z,14.30
2018-01-27T20:46:13.859Z,12.03
2018-01-27T20:48:41.377Z,12.27
2018-01-27T20:51:09.018Z,12.43
2018-01-27T20:53:37.484Z,12.43
2018-01-27T20:56:05.654Z,12.30
2018-01-27T20:58:35.208Z,12.17
2018-01-27T21:01:04.849Z,12.40
2018-01-27T21:03:33.495Z,11.80
2018-01-27T21:06:02.183Z,12.47
2018-01-27T21:08:29.897Z,11.97
2018-01-27T21:10:57.481Z,13.03
2018-01-27T21:13:25.006Z,12.30
2018-01-27T21:15:52.502Z,11.50
2018-01-27T21:18:20.006Z,11.80
2018-01-27T21:20:47.522Z,11.60
2018-01-27T21:23:15.032Z,12.10
2018-01-27T21:25:42.765Z,11.53
2018-01-27T21:28:10.244Z,12.37
2018-01-27T21:30:37.756Z,11.83
2018-01-27T21:33:07.021Z,11.93
2018-01-27T21:35:35.728Z,12.03
2018-01-27T21:38:03.743Z,11.07
2018-01-27T21:40:31.953Z,11.77
2018-01-27T21:43:01.297Z,12.80
2018-01-27T21:45:29.415Z,10.97
2018-01-27T21:47:56.986Z,11.67
2018-01-27T21:50:24.513Z,11.63
2018-01-27T21:52:52.749Z,12.80
2018-01-27T21:55:20.248Z,13.27
2018-01-27T21:57:47.763Z,12.50
2018-01-27T22:00:15.298Z,11.90
2018-01-27T22:02:42.817Z,10.83
2018-01-27T22:05:12.124Z,10.40
2018-01-27T22:07:41.454Z,9.80
2018-01-27T22:10:09.026Z,10.67
2018-01-27T22:12:43.730Z,11.23
2018-01-27T22:15:11.320Z,10.77
2018-01-27T22:17:38.837Z,10.50
2018-01-27T22:20:06.398Z,11.83
2018-01-27T22:22:34.057Z,11.13
2018-01-27T22:25:01.578Z,11.63
2018-01-27T22:27:29.094Z,11.23
2018-01-27T22:29:56.710Z,10.67
2018-01-27T22:32:24.268Z,10.50
2018-01-27T22:34:51.819Z,10.20
2018-01-27T22:37:19.390Z,10.80
2018-01-27T22:39:47.080Z,11.37
2018-01-27T22:42:14.602Z,11.33
2018-01-27T22:44:44.626Z,11.23
2018-01-27T22:47:12.164Z,11.30
2018-01-27T22:49:39.653Z,11.80
2018-01-27T22:52:07.154Z,12.23
2018-01-27T22:54:34.657Z,11.53
2018-01-27T22:57:02.179Z,11.53
2018-01-27T22:59:29.680Z,11.40
2018-01-27T23:01:57.196Z,10.47
2018-01-27T23:04:24.686Z,10.90
2018-01-27T23:06:52.190Z,9.87
2018-01-27T23:09:19.674Z,10.83
2018-01-27T23:11:47.188Z,10.73
2018-01-27T23:14:14.696Z,10.53
2018-01-27T23:16:42.250Z,10.73
2018-01-27T23:19:09.722Z,10.93
2018-01-27T23:21:37.262Z,11.70
2018-01-27T23:24:04.763Z,11.80
2018-01-27T23:26:32.284Z,11.50
2018-01-27T23:28:59.829Z,11.00
2018-01-27T23:31:27.361Z,11.87
2018-01-27T23:33:54.858Z,12.70
2018-01-27T23:36:22.342Z,14.00
2018-01-27T23:38:49.853Z,13.47
2018-01-27T23:41:17.325Z,11.50
2018-01-27T23:43:44.846Z,10.93
2018-01-27T23:46:12.414Z,11.27
2018-01-27T23:48:39.939Z,12.17
2018-01-27T23:51:07.445Z,13.03
2018-01-27T23:53:34.945Z,14.00
2018-01-27T23:56:02.452Z,14.90
2018-01-27T23:58:30.023Z,13.23
